sensor_id;sensor_type;location;lat;lon;timestamp;P1;durP1;ratioP1;P2;durP2;ratioP2
47784;SDS011;35233;55.686;37.848;2022-10-16T00:01:17;5.30;;;3.92;;
47784;SDS011;35233;55.686;37.848;2022-10-16T00:03:44;6.88;;;4.20;;
47784;SDS011;35233;55.686;37.848;2022-10-16T00:06:11;5.78;;;4.10;;
47784;SDS011;35233;55.686;37.848;2022-10-16T00:08:37;6.18;;;3.95;;
47784;SDS011;35233;55.686;37.848;2022-10-16T00:11:04;6.05;;;4.53;;
47784;SDS011;35233;55.686;37.848;2022-10-16T00:13:38;6.25;;;3.70;;
47784;SDS011;35233;55.686;37.848;2022-10-16T00:16:05;5.15;;;3.80;;
47784;SDS011;35233;55.686;37.848;2022-10-16T00:18:31;5.63;;;3.90;;
47784;SDS011;35233;55.686;37.848;2022-10-16T00:21:01;6.05;;;4.18;;
47784;SDS011;35233;55.686;37.848;2022-10-16T00:23:29;7.15;;;3.58;;
47784;SDS011;35233;55.686;37.848;2022-10-16T00:25:57;6.03;;;4.38;;
47784;SDS011;35233;55.686;37.848;2022-10-16T00:28:24;5.07;;;3.88;;
47784;SDS011;35233;55.686;37.848;2022-10-16T00:30:51;7.07;;;4.13;;
47784;SDS011;35233;55.686;37.848;2022-10-16T00:33:16;5.05;;;3.58;;
47784;SDS011;35233;55.686;37.848;2022-10-16T00:35:42;6.85;;;3.80;;
47784;SDS011;35233;55.686;37.848;2022-10-16T00:38:08;5.40;;;4.03;;
47784;SDS011;35233;55.686;37.848;2022-10-16T00:40:33;5.63;;;3.63;;
47784;SDS011;35233;55.686;37.848;2022-10-16T00:42:59;6.20;;;4.10;;
47784;SDS011;35233;55.686;37.848;2022-10-16T00:45:24;4.90;;;3.60;;
47784;SDS011;35233;55.686;37.848;2022-10-16T00:47:50;5.70;;;3.53;;
47784;SDS011;35233;55.686;37.848;2022-10-16T00:50:24;6.35;;;4.20;;
47784;SDS011;35233;55.686;37.848;2022-10-16T00:52:54;6.05;;;4.05;;
47784;SDS011;35233;55.686;37.848;2022-10-16T00:55:21;7.43;;;4.40;;
47784;SDS011;35233;55.686;37.848;2022-10-16T00:57:47;5.57;;;3.88;;
47784;SDS011;35233;55.686;37.848;2022-10-16T01:00:15;6.53;;;4.03;;
47784;SDS011;35233;55.686;37.848;2022-10-16T01:02:42;5.30;;;3.80;;
47784;SDS011;35233;55.686;37.848;2022-10-16T01:05:08;4.80;;;3.53;;
47784;SDS011;35233;55.686;37.848;2022-10-16T01:16:00;5.53;;;3.42;;
47784;SDS011;35233;55.686;37.848;2022-10-16T01:18:34;7.95;;;3.75;;
47784;SDS011;35233;55.686;37.848;2022-10-16T01:21:05;5.07;;;3.70;;
47784;SDS011;35233;55.686;37.848;2022-10-16T01:29:16;5.85;;;4.15;;
47784;SDS011;35233;55.686;37.848;2022-10-16T01:31:48;4.70;;;3.70;;
47784;SDS011;35233;55.686;37.848;2022-10-16T01:34:22;5.38;;;3.65;;
47784;SDS011;35233;55.686;37.848;2022-10-16T01:37:12;6.53;;;3.95;;
47784;SDS011;35233;55.686;37.848;2022-10-16T01:39:47;5.50;;;3.80;;
47784;SDS011;35233;55.686;37.848;2022-10-16T01:42:20;6.13;;;4.10;;
47784;SDS011;35233;55.686;37.848;2022-10-16T01:44:49;5.57;;;3.90;;
47784;SDS011;35233;55.686;37.848;2022-10-16T01:47:17;6.65;;;3.83;;
47784;SDS011;35233;55.686;37.848;2022-10-16T01:49:47;7.07;;;4.15;;
47784;SDS011;35233;55.686;37.848;2022-10-16T01:52:15;6.68;;;4.05;;
47784;SDS011;35233;55.686;37.848;2022-10-16T01:54:46;5.38;;;4.18;;
47784;SDS011;35233;55.686;37.848;2022-10-16T01:57:15;5.13;;;3.67;;
47784;SDS011;35233;55.686;37.848;2022-10-16T01:59:43;5.75;;;3.45;;
47784;SDS011;35233;55.686;37.848;2022-10-16T02:02:12;5.20;;;3.75;;
47784;SDS011;35233;55.686;37.848;2022-10-16T02:04:47;6.22;;;3.80;;
47784;SDS011;35233;55.686;37.848;2022-10-16T02:07:18;5.78;;;4.05;;
47784;SDS011;35233;55.686;37.848;2022-10-16T02:09:43;5.40;;;3.80;;
47784;SDS011;35233;55.686;37.848;2022-10-16T02:14:55;4.30;;;3.47;;
47784;SDS011;35233;55.686;37.848;2022-10-16T02:17:21;6.70;;;3.60;;
47784;SDS011;35233;55.686;37.848;2022-10-16T02:19:47;4.72;;;3.53;;
47784;SDS011;35233;55.686;37.848;2022-10-16T02:22:16;5.10;;;3.70;;
47784;SDS011;35233;55.686;37.848;2022-10-16T02:32:42;4.75;;;3.70;;
47784;SDS011;35233;55.686;37.848;2022-10-16T02:35:11;5.57;;;3.80;;
47784;SDS011;35233;55.686;37.848;2022-10-16T02:37:37;5.53;;;3.80;;
47784;SDS011;35233;55.686;37.848;2022-10-16T02:40:05;4.93;;;3.70;;
47784;SDS011;35233;55.686;37.848;2022-10-16T02:42:36;4.97;;;3.70;;
47784;SDS011;35233;55.686;37.848;2022-10-16T02:45:03;5.47;;;3.85;;
47784;SDS011;35233;55.686;37.848;2022-10-16T02:47:30;5.53;;;3.67;;
47784;SDS011;35233;55.686;37.848;2022-10-16T02:49:55;5.13;;;3.80;;
47784;SDS011;35233;55.686;37.848;2022-10-16T02:52:21;5.88;;;3.58;;
47784;SDS011;35233;55.686;37.848;2022-10-16T02:54:46;5.90;;;3.58;;
47784;SDS011;35233;55.686;37.848;2022-10-16T02:57:12;7.53;;;4.20;;
47784;SDS011;35233;55.686;37.848;2022-10-16T02:59:37;6.47;;;3.67;;
47784;SDS011;35233;55.686;37.848;2022-10-16T03:02:03;8.38;;;3.97;;
47784;SDS011;35233;55.686;37.848;2022-10-16T03:04:29;7.25;;;3.80;;
47784;SDS011;35233;55.686;37.848;2022-10-16T03:06:54;5.18;;;3.53;;
47784;SDS011;35233;55.686;37.848;2022-10-16T03:09:19;5.38;;;3.50;;
47784;SDS011;35233;55.686;37.848;2022-10-16T03:11:45;6.45;;;3.92;;
47784;SDS011;35233;55.686;37.848;2022-10-16T03:14:10;7.85;;;3.90;;
47784;SDS011;35233;55.686;37.848;2022-10-16T03:16:36;5.88;;;3.78;;
47784;SDS011;35233;55.686;37.848;2022-10-16T03:19:01;6.18;;;3.85;;
47784;SDS011;35233;55.686;37.848;2022-10-16T03:21:27;5.45;;;3.90;;
47784;SDS011;35233;55.686;37.848;2022-10-16T03:23:53;5.72;;;3.78;;
47784;SDS011;35233;55.686;37.848;2022-10-16T03:26:18;5.00;;;3.83;;
47784;SDS011;35233;55.686;37.848;2022-10-16T03:28:43;5.82;;;3.83;;
47784;SDS011;35233;55.686;37.848;2022-10-16T03:31:09;5.88;;;3.55;;
47784;SDS011;35233;55.686;37.848;2022-10-16T03:33:34;5.38;;;4.13;;
47784;SDS011;35233;55.686;37.848;2022-10-16T03:36:00;5.28;;;3.65;;
47784;SDS011;35233;55.686;37.848;2022-10-16T03:38:25;6.68;;;4.18;;
47784;SDS011;35233;55.686;37.848;2022-10-16T03:40:51;5.97;;;3.88;;
47784;SDS011;35233;55.686;37.848;2022-10-16T03:43:16;5.95;;;4.05;;
47784;SDS011;35233;55.686;37.848;2022-10-16T03:45:42;5.18;;;3.90;;
47784;SDS011;35233;55.686;37.848;2022-10-16T03:48:08;7.10;;;3.95;;
47784;SDS011;35233;55.686;37.848;2022-10-16T03:50:33;5.10;;;3.60;;
47784;SDS011;35233;55.686;37.848;2022-10-16T03:52:58;6.13;;;4.30;;
47784;SDS011;35233;55.686;37.848;2022-10-16T03:55:24;5.32;;;3.67;;
47784;SDS011;35233;55.686;37.848;2022-10-16T03:57:49;6.07;;;4.10;;
47784;SDS011;35233;55.686;37.848;2022-10-16T04:00:15;6.82;;;4.03;;
47784;SDS011;35233;55.686;37.848;2022-10-16T04:02:40;5.75;;;4.10;;
47784;SDS011;35233;55.686;37.848;2022-10-16T04:05:06;6.20;;;4.20;;
47784;SDS011;35233;55.686;37.848;2022-10-16T04:07:32;5.93;;;3.70;;
47784;SDS011;35233;55.686;37.848;2022-10-16T04:09:58;6.53;;;4.38;;
47784;SDS011;35233;55.686;37.848;2022-10-16T04:12:24;5.60;;;3.78;;
47784;SDS011;35233;55.686;37.848;2022-10-16T04:14:50;5.05;;;3.75;;
47784;SDS011;35233;55.686;37.848;2022-10-16T04:17:16;6.25;;;4.15;;
47784;SDS011;35233;55.686;37.848;2022-10-16T04:19:42;6.32;;;4.10;;
47784;SDS011;35233;55.686;37.848;2022-10-16T04:22:07;8.05;;;4.00;;
47784;SDS011;35233;55.686;37.848;2022-10-16T04:24:33;6.28;;;4.03;;
47784;SDS011;35233;55.686;37.848;2022-10-16T04:26:58;5.93;;;3.95;;
47784;SDS011;35233;55.686;37.848;2022-10-16T04:29:24;7.20;;;4.15;;
47784;SDS011;35233;55.686;37.848;2022-10-16T04:31:49;5.85;;;4.13;;
47784;SDS011;35233;55.686;37.848;2022-10-16T04:34:15;6.60;;;3.97;;
47784;SDS011;35233;55.686;37.848;2022-10-16T04:36:40;6.55;;;4.20;;
47784;SDS011;35233;55.686;37.848;2022-10-16T04:39:06;6.30;;;4.03;;
47784;SDS011;35233;55.686;37.848;2022-10-16T04:41:31;6.78;;;4.03;;
47784;SDS011;35233;55.686;37.848;2022-10-16T04:43:57;6.13;;;4.15;;
47784;SDS011;35233;55.686;37.848;2022-10-16T04:46:22;8.90;;;4.68;;
47784;SDS011;35233;55.686;37.848;2022-10-16T04:48:48;6.30;;;4.50;;
47784;SDS011;35233;55.686;37.848;2022-10-16T04:51:13;6.70;;;4.45;;
47784;SDS011;35233;55.686;37.848;2022-10-16T04:53:39;5.78;;;4.22;;
47784;SDS011;35233;55.686;37.848;2022-10-16T04:56:04;5.55;;;4.15;;
47784;SDS011;35233;55.686;37.848;2022-10-16T04:58:30;8.48;;;4.40;;
47784;SDS011;35233;55.686;37.848;2022-10-16T05:00:55;6.38;;;4.03;;
47784;SDS011;35233;55.686;37.848;2022-10-16T05:03:21;8.00;;;4.43;;
47784;SDS011;35233;55.686;37.848;2022-10-16T05:05:46;5.72;;;4.22;;
47784;SDS011;35233;55.686;37.848;2022-10-16T05:08:13;6.70;;;4.20;;
47784;SDS011;35233;55.686;37.848;2022-10-16T05:10:41;6.07;;;4.40;;
47784;SDS011;35233;55.686;37.848;2022-10-16T05:13:07;7.25;;;4.35;;
47784;SDS011;35233;55.686;37.848;2022-10-16T05:15:33;6.68;;;4.20;;
47784;SDS011;35233;55.686;37.848;2022-10-16T05:17:59;7.10;;;4.68;;
47784;SDS011;35233;55.686;37.848;2022-10-16T05:20:24;7.35;;;4.65;;
47784;SDS011;35233;55.686;37.848;2022-10-16T05:22:50;6.20;;;4.20;;
47784;SDS011;35233;55.686;37.848;2022-10-16T05:25:15;7.10;;;4.53;;
47784;SDS011;35233;55.686;37.848;2022-10-16T05:27:41;6.43;;;4.20;;
47784;SDS011;35233;55.686;37.848;2022-10-16T05:30:07;7.80;;;3.90;;
47784;SDS011;35233;55.686;37.848;2022-10-16T05:32:32;7.05;;;3.95;;
47784;SDS011;35233;55.686;37.848;2022-10-16T05:34:58;6.05;;;4.25;;
47784;SDS011;35233;55.686;37.848;2022-10-16T05:37:25;5.32;;;3.88;;
47784;SDS011;35233;55.686;37.848;2022-10-16T05:39:52;6.43;;;4.10;;
47784;SDS011;35233;55.686;37.848;2022-10-16T05:42:17;7.22;;;4.10;;
47784;SDS011;35233;55.686;37.848;2022-10-16T05:44:43;8.27;;;4.03;;
47784;SDS011;35233;55.686;37.848;2022-10-16T05:47:09;6.45;;;3.78;;
47784;SDS011;35233;55.686;37.848;2022-10-16T05:49:36;5.85;;;4.03;;
47784;SDS011;35233;55.686;37.848;2022-10-16T05:52:01;6.75;;;4.03;;
47784;SDS011;35233;55.686;37.848;2022-10-16T05:54:27;5.70;;;3.90;;
47784;SDS011;35233;55.686;37.848;2022-10-16T05:56:52;7.63;;;4.35;;
47784;SDS011;35233;55.686;37.848;2022-10-16T05:59:18;6.72;;;4.43;;
47784;SDS011;35233;55.686;37.848;2022-10-16T06:01:43;6.40;;;3.83;;
47784;SDS011;35233;55.686;37.848;2022-10-16T06:04:09;5.13;;;3.75;;
47784;SDS011;35233;55.686;37.848;2022-10-16T06:06:34;6.07;;;3.92;;
47784;SDS011;35233;55.686;37.848;2022-10-16T06:09:01;6.93;;;4.30;;
47784;SDS011;35233;55.686;37.848;2022-10-16T06:11:29;6.20;;;4.05;;
47784;SDS011;35233;55.686;37.848;2022-10-16T06:13:57;5.60;;;3.75;;
47784;SDS011;35233;55.686;37.848;2022-10-16T06:16:26;6.10;;;4.25;;
47784;SDS011;35233;55.686;37.848;2022-10-16T06:18:53;6.53;;;3.85;;
47784;SDS011;35233;55.686;37.848;2022-10-16T06:21:21;6.38;;;4.20;;
47784;SDS011;35233;55.686;37.848;2022-10-16T06:23:51;8.20;;;4.07;;
47784;SDS011;35233;55.686;37.848;2022-10-16T06:26:18;6.82;;;4.35;;
47784;SDS011;35233;55.686;37.848;2022-10-16T06:28:46;5.97;;;4.30;;
47784;SDS011;35233;55.686;37.848;2022-10-16T06:31:12;6.47;;;4.35;;
47784;SDS011;35233;55.686;37.848;2022-10-16T06:33:38;8.32;;;4.55;;
47784;SDS011;35233;55.686;37.848;2022-10-16T06:36:05;6.45;;;3.88;;
47784;SDS011;35233;55.686;37.848;2022-10-16T06:38:35;6.63;;;4.32;;
47784;SDS011;35233;55.686;37.848;2022-10-16T06:41:02;5.82;;;4.10;;
47784;SDS011;35233;55.686;37.848;2022-10-16T06:43:29;6.22;;;4.22;;
47784;SDS011;35233;55.686;37.848;2022-10-16T06:45:58;6.40;;;4.10;;
47784;SDS011;35233;55.686;37.848;2022-10-16T06:48:25;7.30;;;4.38;;
47784;SDS011;35233;55.686;37.848;2022-10-16T06:50:58;7.80;;;3.72;;
47784;SDS011;35233;55.686;37.848;2022-10-16T06:53:28;7.85;;;4.57;;
47784;SDS011;35233;55.686;37.848;2022-10-16T06:55:55;8.15;;;4.38;;
47784;SDS011;35233;55.686;37.848;2022-10-16T06:58:22;7.05;;;4.53;;
47784;SDS011;35233;55.686;37.848;2022-10-16T07:00:47;6.18;;;4.25;;
47784;SDS011;35233;55.686;37.848;2022-10-16T07:03:14;8.15;;;4.55;;
47784;SDS011;35233;55.686;37.848;2022-10-16T07:05:40;6.40;;;4.20;;
47784;SDS011;35233;55.686;37.848;2022-10-16T07:08:07;6.18;;;4.30;;
47784;SDS011;35233;55.686;37.848;2022-10-16T07:10:33;5.53;;;4.00;;
47784;SDS011;35233;55.686;37.848;2022-10-16T07:12:59;7.13;;;4.40;;
47784;SDS011;35233;55.686;37.848;2022-10-16T07:15:25;6.75;;;4.15;;
47784;SDS011;35233;55.686;37.848;2022-10-16T07:17:51;7.03;;;4.38;;
47784;SDS011;35233;55.686;37.848;2022-10-16T07:20:17;6.47;;;4.22;;
47784;SDS011;35233;55.686;37.848;2022-10-16T07:22:43;6.03;;;4.00;;
47784;SDS011;35233;55.686;37.848;2022-10-16T07:25:08;6.78;;;3.85;;
47784;SDS011;35233;55.686;37.848;2022-10-16T07:27:34;6.00;;;4.07;;
47784;SDS011;35233;55.686;37.848;2022-10-16T07:30:00;7.38;;;4.28;;
47784;SDS011;35233;55.686;37.848;2022-10-16T07:32:26;7.07;;;4.35;;
47784;SDS011;35233;55.686;37.848;2022-10-16T07:34:52;7.03;;;4.40;;
47784;SDS011;35233;55.686;37.848;2022-10-16T07:37:18;6.32;;;4.00;;
47784;SDS011;35233;55.686;37.848;2022-10-16T07:39:44;6.88;;;3.97;;
47784;SDS011;35233;55.686;37.848;2022-10-16T07:42:09;7.47;;;4.07;;
47784;SDS011;35233;55.686;37.848;2022-10-16T07:44:35;5.82;;;3.88;;
47784;SDS011;35233;55.686;37.848;2022-10-16T07:47:01;7.78;;;3.70;;
47784;SDS011;35233;55.686;37.848;2022-10-16T07:49:27;5.85;;;4.30;;
47784;SDS011;35233;55.686;37.848;2022-10-16T07:51:52;5.97;;;4.03;;
47784;SDS011;35233;55.686;37.848;2022-10-16T07:54:18;5.72;;;3.92;;
47784;SDS011;35233;55.686;37.848;2022-10-16T07:56:43;5.82;;;3.75;;
47784;SDS011;35233;55.686;37.848;2022-10-16T07:59:09;7.90;;;4.35;;
47784;SDS011;35233;55.686;37.848;2022-10-16T08:01:34;6.82;;;4.22;;
47784;SDS011;35233;55.686;37.848;2022-10-16T08:04:00;6.13;;;4.00;;
47784;SDS011;35233;55.686;37.848;2022-10-16T08:06:25;6.80;;;4.00;;
47784;SDS011;35233;55.686;37.848;2022-10-16T08:08:51;6.38;;;3.90;;
47784;SDS011;35233;55.686;37.848;2022-10-16T08:11:16;7.20;;;4.20;;
47784;SDS011;35233;55.686;37.848;2022-10-16T08:13:42;5.50;;;4.00;;
47784;SDS011;35233;55.686;37.848;2022-10-16T08:16:08;6.43;;;4.07;;
47784;SDS011;35233;55.686;37.848;2022-10-16T08:18:35;6.57;;;3.67;;
47784;SDS011;35233;55.686;37.848;2022-10-16T08:21:02;5.97;;;3.55;;
47784;SDS011;35233;55.686;37.848;2022-10-16T08:23:31;6.13;;;3.40;;
47784;SDS011;35233;55.686;37.848;2022-10-16T08:26:01;7.72;;;3.78;;
47784;SDS011;35233;55.686;37.848;2022-10-16T08:28:29;5.10;;;3.40;;
47784;SDS011;35233;55.686;37.848;2022-10-16T08:30:55;4.72;;;3.20;;
47784;SDS011;35233;55.686;37.848;2022-10-16T08:33:22;6.85;;;3.75;;
47784;SDS011;35233;55.686;37.848;2022-10-16T08:35:53;7.03;;;3.75;;
47784;SDS011;35233;55.686;37.848;2022-10-16T08:38:19;5.20;;;3.42;;
47784;SDS011;35233;55.686;37.848;2022-10-16T08:40:45;6.05;;;3.75;;
47784;SDS011;35233;55.686;37.848;2022-10-16T08:43:19;5.40;;;3.20;;
47784;SDS011;35233;55.686;37.848;2022-10-16T08:49:12;5.63;;;3.70;;
47784;SDS011;35233;55.686;37.848;2022-10-16T08:51:39;5.45;;;3.40;;
47784;SDS011;35233;55.686;37.848;2022-10-16T08:54:22;6.10;;;3.58;;
47784;SDS011;35233;55.686;37.848;2022-10-16T08:56:55;4.97;;;3.20;;
47784;SDS011;35233;55.686;37.848;2022-10-16T08:59:22;4.97;;;3.20;;
47784;SDS011;35233;55.686;37.848;2022-10-16T09:01:49;6.18;;;3.55;;
47784;SDS011;35233;55.686;37.848;2022-10-16T09:06:59;5.32;;;3.35;;
47784;SDS011;35233;55.686;37.848;2022-10-16T09:09:38;6.25;;;3.47;;
47784;SDS011;35233;55.686;37.848;2022-10-16T09:12:15;4.35;;;2.80;;
47784;SDS011;35233;55.686;37.848;2022-10-16T09:20:19;5.22;;;3.20;;
47784;SDS011;35233;55.686;37.848;2022-10-16T09:25:30;4.32;;;3.00;;
47784;SDS011;35233;55.686;37.848;2022-10-16T09:27:57;4.18;;;3.08;;
47784;SDS011;35233;55.686;37.848;2022-10-16T09:30:23;4.97;;;3.10;;
47784;SDS011;35233;55.686;37.848;2022-10-16T09:32:53;4.60;;;3.20;;
47784;SDS011;35233;55.686;37.848;2022-10-16T09:35:21;4.50;;;3.00;;
47784;SDS011;35233;55.686;37.848;2022-10-16T09:37:51;5.57;;;3.22;;
47784;SDS011;35233;55.686;37.848;2022-10-16T09:40:24;5.28;;;3.10;;
47784;SDS011;35233;55.686;37.848;2022-10-16T09:42:55;4.80;;;3.20;;
47784;SDS011;35233;55.686;37.848;2022-10-16T09:45:39;4.70;;;2.90;;
47784;SDS011;35233;55.686;37.848;2022-10-16T09:48:12;4.65;;;3.10;;
47784;SDS011;35233;55.686;37.848;2022-10-16T09:50:38;5.10;;;3.47;;
47784;SDS011;35233;55.686;37.848;2022-10-16T09:55:35;5.30;;;3.10;;
47784;SDS011;35233;55.686;37.848;2022-10-16T09:58:01;5.20;;;3.10;;
47784;SDS011;35233;55.686;37.848;2022-10-16T10:00:26;4.68;;;3.00;;
47784;SDS011;35233;55.686;37.848;2022-10-16T10:02:52;5.05;;;2.97;;
47784;SDS011;35233;55.686;37.848;2022-10-16T10:05:24;4.60;;;3.08;;
47784;SDS011;35233;55.686;37.848;2022-10-16T10:07:55;4.15;;;3.00;;
47784;SDS011;35233;55.686;37.848;2022-10-16T10:10:27;4.55;;;2.83;;
47784;SDS011;35233;55.686;37.848;2022-10-16T10:12:54;5.28;;;3.20;;
47784;SDS011;35233;55.686;37.848;2022-10-16T10:15:20;5.47;;;3.00;;
47784;SDS011;35233;55.686;37.848;2022-10-16T10:17:52;5.15;;;3.17;;
47784;SDS011;35233;55.686;37.848;2022-10-16T10:21:20;5.10;;;3.10;;
47784;SDS011;35233;55.686;37.848;2022-10-16T10:23:25;4.57;;;2.75;;
47784;SDS011;35233;55.686;37.848;2022-10-16T10:25:54;4.15;;;2.50;;
47784;SDS011;35233;55.686;37.848;2022-10-16T10:31:38;4.47;;;3.10;;
47784;SDS011;35233;55.686;37.848;2022-10-16T10:36:38;4.10;;;3.00;;
47784;SDS011;35233;55.686;37.848;2022-10-16T10:39:12;4.07;;;2.78;;
47784;SDS011;35233;55.686;37.848;2022-10-16T10:50:12;4.75;;;2.75;;
47784;SDS011;35233;55.686;37.848;2022-10-16T10:58:33;6.57;;;3.25;;
47784;SDS011;35233;55.686;37.848;2022-10-16T11:01:02;4.78;;;3.08;;
47784;SDS011;35233;55.686;37.848;2022-10-16T11:03:55;4.00;;;2.75;;
47784;SDS011;35233;55.686;37.848;2022-10-16T11:09:10;4.93;;;2.85;;
47784;SDS011;35233;55.686;37.848;2022-10-16T11:11:43;3.75;;;2.63;;
47784;SDS011;35233;55.686;37.848;2022-10-16T11:22:04;4.03;;;2.63;;
47784;SDS011;35233;55.686;37.848;2022-10-16T11:24:46;4.63;;;2.80;;
47784;SDS011;35233;55.686;37.848;2022-10-16T11:27:40;3.20;;;2.28;;
47784;SDS011;35233;55.686;37.848;2022-10-16T11:30:29;6.60;;;2.90;;
47784;SDS011;35233;55.686;37.848;2022-10-16T11:35:41;4.22;;;3.03;;
47784;SDS011;35233;55.686;37.848;2022-10-16T11:38:31;4.05;;;2.85;;
47784;SDS011;35233;55.686;37.848;2022-10-16T11:44:00;5.93;;;2.88;;
47784;SDS011;35233;55.686;37.848;2022-10-16T11:49:38;4.15;;;2.90;;
47784;SDS011;35233;55.686;37.848;2022-10-16T11:55:20;3.78;;;2.80;;
47784;SDS011;35233;55.686;37.848;2022-10-16T11:57:53;3.97;;;2.90;;
47784;SDS011;35233;55.686;37.848;2022-10-16T12:00:25;4.15;;;2.72;;
47784;SDS011;35233;55.686;37.848;2022-10-16T12:08:53;3.90;;;2.75;;
47784;SDS011;35233;55.686;37.848;2022-10-16T12:14:38;5.53;;;2.70;;
47784;SDS011;35233;55.686;37.848;2022-10-16T12:17:00;4.35;;;3.00;;
47784;SDS011;35233;55.686;37.848;2022-10-16T12:19:26;5.35;;;2.88;;
47784;SDS011;35233;55.686;37.848;2022-10-16T12:21:55;4.07;;;3.08;;
47784;SDS011;35233;55.686;37.848;2022-10-16T12:24:31;3.53;;;2.50;;
47784;SDS011;35233;55.686;37.848;2022-10-16T12:26:59;3.90;;;2.45;;
47784;SDS011;35233;55.686;37.848;2022-10-16T12:31:58;4.25;;;2.90;;
47784;SDS011;35233;55.686;37.848;2022-10-16T12:37:15;4.97;;;2.90;;
47784;SDS011;35233;55.686;37.848;2022-10-16T12:39:53;3.85;;;2.53;;
47784;SDS011;35233;55.686;37.848;2022-10-16T12:42:21;4.50;;;2.75;;
47784;SDS011;35233;55.686;37.848;2022-10-16T12:44:47;4.60;;;2.35;;
47784;SDS011;35233;55.686;37.848;2022-10-16T12:49:57;2.80;;;2.30;;
47784;SDS011;35233;55.686;37.848;2022-10-16T12:52:25;3.50;;;2.47;;
47784;SDS011;35233;55.686;37.848;2022-10-16T12:54:55;4.53;;;2.78;;
47784;SDS011;35233;55.686;37.848;2022-10-16T13:03:00;3.72;;;2.63;;
47784;SDS011;35233;55.686;37.848;2022-10-16T13:11:30;3.53;;;2.60;;
47784;SDS011;35233;55.686;37.848;2022-10-16T13:21:57;3.78;;;2.50;;
47784;SDS011;35233;55.686;37.848;2022-10-16T13:30:26;4.30;;;2.42;;
47784;SDS011;35233;55.686;37.848;2022-10-16T13:33:04;4.70;;;2.65;;
47784;SDS011;35233;55.686;37.848;2022-10-16T13:35:46;3.88;;;2.50;;
47784;SDS011;35233;55.686;37.848;2022-10-16T13:38:17;4.32;;;2.67;;
47784;SDS011;35233;55.686;37.848;2022-10-16T13:40:58;3.30;;;2.45;;
47784;SDS011;35233;55.686;37.848;2022-10-16T13:43:32;5.35;;;2.78;;
47784;SDS011;35233;55.686;37.848;2022-10-16T13:48:30;3.70;;;2.47;;
47784;SDS011;35233;55.686;37.848;2022-10-16T13:53:33;4.28;;;2.70;;
47784;SDS011;35233;55.686;37.848;2022-10-16T13:56:01;4.05;;;2.80;;
47784;SDS011;35233;55.686;37.848;2022-10-16T13:58:29;3.33;;;2.20;;
47784;SDS011;35233;55.686;37.848;2022-10-16T14:00:55;3.67;;;2.30;;
47784;SDS011;35233;55.686;37.848;2022-10-16T14:03:25;3.28;;;2.63;;
47784;SDS011;35233;55.686;37.848;2022-10-16T14:05:53;3.10;;;2.25;;
47784;SDS011;35233;55.686;37.848;2022-10-16T14:08:24;5.90;;;2.88;;
47784;SDS011;35233;55.686;37.848;2022-10-16T14:10:55;3.72;;;2.47;;
47784;SDS011;35233;55.686;37.848;2022-10-16T14:13:29;4.10;;;2.55;;
47784;SDS011;35233;55.686;37.848;2022-10-16T14:16:02;5.13;;;2.80;;
47784;SDS011;35233;55.686;37.848;2022-10-16T14:18:35;4.80;;;2.97;;
47784;SDS011;35233;55.686;37.848;2022-10-16T14:21:06;4.55;;;2.95;;
47784;SDS011;35233;55.686;37.848;2022-10-16T14:23:37;3.88;;;2.92;;
47784;SDS011;35233;55.686;37.848;2022-10-16T14:28:38;3.67;;;2.35;;
47784;SDS011;35233;55.686;37.848;2022-10-16T14:33:54;4.40;;;2.58;;
47784;SDS011;35233;55.686;37.848;2022-10-16T14:36:20;3.78;;;2.80;;
47784;SDS011;35233;55.686;37.848;2022-10-16T14:41:25;4.85;;;2.55;;
47784;SDS011;35233;55.686;37.848;2022-10-16T14:43:55;4.18;;;2.78;;
47784;SDS011;35233;55.686;37.848;2022-10-16T14:46:30;4.97;;;2.60;;
47784;SDS011;35233;55.686;37.848;2022-10-16T14:49:06;4.43;;;2.90;;
47784;SDS011;35233;55.686;37.848;2022-10-16T14:51:42;3.90;;;2.60;;
47784;SDS011;35233;55.686;37.848;2022-10-16T14:54:10;5.45;;;2.95;;
47784;SDS011;35233;55.686;37.848;2022-10-16T14:59:19;4.15;;;2.90;;
47784;SDS011;35233;55.686;37.848;2022-10-16T15:01:52;4.00;;;2.60;;
47784;SDS011;35233;55.686;37.848;2022-10-16T15:04:18;4.45;;;3.00;;
47784;SDS011;35233;55.686;37.848;2022-10-16T15:06:43;4.28;;;2.60;;
47784;SDS011;35233;55.686;37.848;2022-10-16T15:09:09;4.22;;;2.83;;
47784;SDS011;35233;55.686;37.848;2022-10-16T15:11:34;3.92;;;2.70;;
47784;SDS011;35233;55.686;37.848;2022-10-16T15:14:01;4.55;;;2.70;;
47784;SDS011;35233;55.686;37.848;2022-10-16T15:16:26;4.05;;;2.65;;
47784;SDS011;35233;55.686;37.848;2022-10-16T15:18:52;4.45;;;2.85;;
47784;SDS011;35233;55.686;37.848;2022-10-16T15:21:27;4.80;;;2.75;;
47784;SDS011;35233;55.686;37.848;2022-10-16T15:23:54;5.03;;;2.92;;
47784;SDS011;35233;55.686;37.848;2022-10-16T15:26:22;4.15;;;3.00;;
47784;SDS011;35233;55.686;37.848;2022-10-16T15:28:56;4.03;;;2.83;;
47784;SDS011;35233;55.686;37.848;2022-10-16T15:31:22;4.65;;;3.08;;
47784;SDS011;35233;55.686;37.848;2022-10-16T15:33:49;4.38;;;3.08;;
47784;SDS011;35233;55.686;37.848;2022-10-16T15:36:24;4.75;;;3.13;;
47784;SDS011;35233;55.686;37.848;2022-10-16T15:38:50;6.40;;;3.22;;
47784;SDS011;35233;55.686;37.848;2022-10-16T15:41:16;4.82;;;2.80;;
47784;SDS011;35233;55.686;37.848;2022-10-16T15:43:42;6.38;;;3.00;;
47784;SDS011;35233;55.686;37.848;2022-10-16T15:46:08;5.35;;;3.10;;
47784;SDS011;35233;55.686;37.848;2022-10-16T15:48:37;4.65;;;3.20;;
47784;SDS011;35233;55.686;37.848;2022-10-16T15:51:06;5.07;;;3.22;;
47784;SDS011;35233;55.686;37.848;2022-10-16T15:53:33;4.90;;;3.15;;
47784;SDS011;35233;55.686;37.848;2022-10-16T15:56:02;5.00;;;2.92;;
47784;SDS011;35233;55.686;37.848;2022-10-16T15:58:31;4.68;;;3.13;;
47784;SDS011;35233;55.686;37.848;2022-10-16T16:00:58;6.53;;;3.25;;
47784;SDS011;35233;55.686;37.848;2022-10-16T16:03:28;5.43;;;3.38;;
47784;SDS011;35233;55.686;37.848;2022-10-16T16:05:54;5.18;;;3.05;;
47784;SDS011;35233;55.686;37.848;2022-10-16T16:08:20;4.45;;;2.78;;
47784;SDS011;35233;55.686;37.848;2022-10-16T16:10:57;5.32;;;3.28;;
47784;SDS011;35233;55.686;37.848;2022-10-16T16:13:26;4.90;;;3.08;;
47784;SDS011;35233;55.686;37.848;2022-10-16T16:15:52;6.68;;;3.10;;
47784;SDS011;35233;55.686;37.848;2022-10-16T16:18:18;4.78;;;3.33;;
47784;SDS011;35233;55.686;37.848;2022-10-16T16:20:43;5.40;;;3.45;;
47784;SDS011;35233;55.686;37.848;2022-10-16T16:23:09;6.22;;;3.38;;
47784;SDS011;35233;55.686;37.848;2022-10-16T16:25:34;5.18;;;3.42;;
47784;SDS011;35233;55.686;37.848;2022-10-16T16:28:00;4.53;;;3.10;;
47784;SDS011;35233;55.686;37.848;2022-10-16T16:30:25;5.47;;;3.13;;
47784;SDS011;35233;55.686;37.848;2022-10-16T16:32:51;6.07;;;3.22;;
47784;SDS011;35233;55.686;37.848;2022-10-16T16:35:16;6.18;;;3.00;;
47784;SDS011;35233;55.686;37.848;2022-10-16T16:37:42;4.90;;;3.10;;
47784;SDS011;35233;55.686;37.848;2022-10-16T16:40:07;4.85;;;3.35;;
47784;SDS011;35233;55.686;37.848;2022-10-16T16:42:33;4.85;;;3.45;;
47784;SDS011;35233;55.686;37.848;2022-10-16T16:44:58;4.53;;;3.33;;
47784;SDS011;35233;55.686;37.848;2022-10-16T16:47:24;4.30;;;3.03;;
47784;SDS011;35233;55.686;37.848;2022-10-16T16:49:50;5.00;;;3.20;;
47784;SDS011;35233;55.686;37.848;2022-10-16T16:52:16;5.05;;;3.38;;
47784;SDS011;35233;55.686;37.848;2022-10-16T16:54:42;5.22;;;3.30;;
47784;SDS011;35233;55.686;37.848;2022-10-16T16:57:09;5.00;;;3.50;;
47784;SDS011;35233;55.686;37.848;2022-10-16T16:59:35;5.93;;;4.13;;
47784;SDS011;35233;55.686;37.848;2022-10-16T17:02:01;5.65;;;3.50;;